sensor_id;sensor_type;location;lat;lon;timestamp;pressure;altitude;pressure_sealevel;temperature;humidity
12146;BME280;6136;47.032;15.398;2023-02-08T00:01:16;99719.97;;;-6.68;100.00
12146;BME280;6136;47.032;15.398;2023-02-08T00:03:44;99715.69;;;-6.68;100.00
12146;BME280;6136;47.032;15.398;2023-02-08T00:06:15;99719.09;;;-6.69;100.00
12146;BME280;6136;47.032;15.398;2023-02-08T00:08:43;99719.91;;;-6.70;100.00
12146;BME280;6136;47.032;15.398;2023-02-08T00:11:12;99718.84;;;-6.75;100.00
12146;BME280;6136;47.032;15.398;2023-02-08T00:13:40;99718.06;;;-6.72;100.00
12146;BME280;6136;47.032;15.398;2023-02-08T00:16:09;99718.06;;;-6.72;100.00
12146;BME280;6136;47.032;15.398;2023-02-08T00:18:38;99717.19;;;-6.73;100.00
12146;BME280;6136;47.032;15.398;2023-02-08T00:21:08;99717.25;;;-6.71;100.00
12146;BME280;6136;47.032;15.398;2023-02-08T00:23:38;99718.94;;;-6.72;100.00
12146;BME280;6136;47.032;15.398;2023-02-08T00:26:06;99720.72;;;-6.71;100.00
12146;BME280;6136;47.032;15.398;2023-02-08T00:28:35;99724.91;;;-6.73;100.00
12146;BME280;6136;47.032;15.398;2023-02-08T00:31:04;99721.44;;;-6.75;100.00
12146;BME280;6136;47.032;15.398;2023-02-08T00:33:33;99722.25;;;-6.76;100.00
12146;BME280;6136;47.032;15.398;2023-02-08T00:36:03;99707.66;;;-6.75;100.00
12146;BME280;6136;47.032;15.398;2023-02-08T00:38:32;99718.63;;;-6.79;100.00
12146;BME280;6136;47.032;15.398;2023-02-08T00:41:02;99715.00;;;-6.84;100.00
12146;BME280;6136;47.032;15.398;2023-02-08T00:43:30;99720.09;;;-6.86;100.00
12146;BME280;6136;47.032;15.398;2023-02-08T00:45:58;99715.66;;;-6.90;100.00
12146;BME280;6136;47.032;15.398;2023-02-08T00:48:27;99733.56;;;-6.93;100.00
12146;BME280;6136;47.032;15.398;2023-02-08T00:50:57;99735.97;;;-6.96;100.00
12146;BME280;6136;47.032;15.398;2023-02-08T00:53:25;99739.59;;;-6.92;100.00
12146;BME280;6136;47.032;15.398;2023-02-08T00:55:54;99737.69;;;-6.96;100.00
12146;BME280;6136;47.032;15.398;2023-02-08T00:58:25;99735.19;;;-6.95;100.00
12146;BME280;6136;47.032;15.398;2023-02-08T01:00:54;99737.75;;;-6.95;100.00
12146;BME280;6136;47.032;15.398;2023-02-08T01:03:22;99732.59;;;-6.95;100.00
12146;BME280;6136;47.032;15.398;2023-02-08T01:05:51;99739.41;;;-6.97;100.00
12146;BME280;6136;47.032;15.398;2023-02-08T01:08:19;99732.50;;;-6.98;100.00
12146;BME280;6136;47.032;15.398;2023-02-08T01:10:48;99733.31;;;-6.99;100.00
12146;BME280;6136;47.032;15.398;2023-02-08T01:13:16;99724.22;;;-7.10;100.00
12146;BME280;6136;47.032;15.398;2023-02-08T01:15:45;99729.03;;;-7.19;100.00
12146;BME280;6136;47.032;15.398;2023-02-08T01:18:13;99721.41;;;-7.16;100.00
12146;BME280;6136;47.032;15.398;2023-02-08T01:20:42;99720.72;;;-7.12;100.00
12146;BME280;6136;47.032;15.398;2023-02-08T01:23:10;99724.88;;;-7.16;100.00
12146;BME280;6136;47.032;15.398;2023-02-08T01:25:38;99719.59;;;-7.19;100.00
12146;BME280;6136;47.032;15.398;2023-02-08T01:28:07;99727.25;;;-7.20;100.00
12146;BME280;6136;47.032;15.398;2023-02-08T01:30:36;99729.75;;;-7.22;100.00
12146;BME280;6136;47.032;15.398;2023-02-08T01:33:06;99726.22;;;-7.24;100.00
12146;BME280;6136;47.032;15.398;2023-02-08T01:35:34;99721.06;;;-7.24;100.00
12146;BME280;6136;47.032;15.398;2023-02-08T01:38:03;99718.41;;;-7.27;100.00
12146;BME280;6136;47.032;15.398;2023-02-08T01:40:31;99714.88;;;-7.29;100.00
12146;BME280;6136;47.032;15.398;2023-02-08T01:42:59;99714.78;;;-7.30;100.00
12146;BME280;6136;47.032;15.398;2023-02-08T01:45:29;99706.81;;;-7.36;100.00
12146;BME280;6136;47.032;15.398;2023-02-08T01:48:02;99706.13;;;-7.32;100.00
12146;BME280;6136;47.032;15.398;2023-02-08T01:50:38;99709.31;;;-7.38;100.00
12146;BME280;6136;47.032;15.398;2023-02-08T01:53:09;99704.09;;;-7.39;100.00
12146;BME280;6136;47.032;15.398;2023-02-08T01:55:40;99697.94;;;-7.43;100.00
12146;BME280;6136;47.032;15.398;2023-02-08T01:58:12;99696.13;;;-7.46;100.00
12146;BME280;6136;47.032;15.398;2023-02-08T02:00:41;99706.75;;;-7.38;100.00
12146;BME280;6136;47.032;15.398;2023-02-08T02:03:11;99708.50;;;-7.37;100.00
12146;BME280;6136;47.032;15.398;2023-02-08T02:05:43;99700.44;;;-7.45;100.00
12146;BME280;6136;47.032;15.398;2023-02-08T02:08:12;99716.59;;;-7.49;100.00
12146;BME280;6136;47.032;15.398;2023-02-08T02:10:42;99709.72;;;-7.48;100.00
12146;BME280;6136;47.032;15.398;2023-02-08T02:13:12;99724.31;;;-7.49;100.00
12146;BME280;6136;47.032;15.398;2023-02-08T02:15:43;99721.88;;;-7.46;100.00
12146;BME280;6136;47.032;15.398;2023-02-08T02:18:15;99717.41;;;-7.50;100.00
12146;BME280;6136;47.032;15.398;2023-02-08T02:21:00;99719.75;;;-7.54;100.00
12146;BME280;6136;47.032;15.398;2023-02-08T02:24:02;99724.03;;;-7.55;100.00
12146;BME280;6136;47.032;15.398;2023-02-08T02:27:05;99720.56;;;-7.55;100.00
12146;BME280;6136;47.032;15.398;2023-02-08T02:33:01;99720.13;;;-7.66;100.00
12146;BME280;6136;47.032;15.398;2023-02-08T02:35:37;99728.50;;;-7.70;100.00
12146;BME280;6136;47.032;15.398;2023-02-08T02:38:14;99727.50;;;-7.73;100.00
12146;BME280;6136;47.032;15.398;2023-02-08T02:41:03;99722.44;;;-7.72;100.00
12146;BME280;6136;47.032;15.398;2023-02-08T02:43:41;99728.66;;;-7.67;100.00
12146;BME280;6136;47.032;15.398;2023-02-08T02:46:21;99733.00;;;-7.66;100.00
12146;BME280;6136;47.032;15.398;2023-02-08T02:48:58;99729.34;;;-7.71;100.00
12146;BME280;6136;47.032;15.398;2023-02-08T02:51:37;99734.53;;;-7.69;100.00
12146;BME280;6136;47.032;15.398;2023-02-08T02:54:11;99732.50;;;-7.76;100.00
12146;BME280;6136;47.032;15.398;2023-02-08T02:56:43;99734.16;;;-7.78;100.00
12146;BME280;6136;47.032;15.398;2023-02-08T02:59:14;99740.19;;;-7.78;100.00
12146;BME280;6136;47.032;15.398;2023-02-08T03:01:44;99735.03;;;-7.78;100.00
12146;BME280;6136;47.032;15.398;2023-02-08T03:04:16;99730.75;;;-7.77;100.00
12146;BME280;6136;47.032;15.398;2023-02-08T03:06:56;99727.81;;;-7.85;100.00
12146;BME280;6136;47.032;15.398;2023-02-08T03:09:39;99729.47;;;-7.87;100.00
12146;BME280;6136;47.032;15.398;2023-02-08T03:12:23;99735.19;;;-7.93;100.00
12146;BME280;6136;47.032;15.398;2023-02-08T03:14:57;99743.16;;;-7.88;100.00
12146;BME280;6136;47.032;15.398;2023-02-08T03:17:46;99754.09;;;-7.92;100.00
12146;BME280;6136;47.032;15.398;2023-02-08T03:20:21;99754.94;;;-7.93;100.00
12146;BME280;6136;47.032;15.398;2023-02-08T03:22:59;99745.50;;;-7.93;100.00
12146;BME280;6136;47.032;15.398;2023-02-08T03:25:33;99753.16;;;-7.94;100.00
12146;BME280;6136;47.032;15.398;2023-02-08T03:28:07;99758.97;;;-7.98;100.00
12146;BME280;6136;47.032;15.398;2023-02-08T03:30:45;99765.88;;;-7.97;100.00
12146;BME280;6136;47.032;15.398;2023-02-08T03:33:22;99770.06;;;-7.99;100.00
12146;BME280;6136;47.032;15.398;2023-02-08T03:35:57;99772.44;;;-8.04;100.00
12146;BME280;6136;47.032;15.398;2023-02-08T03:38:31;99772.50;;;-8.02;100.00
12146;BME280;6136;47.032;15.398;2023-02-08T03:41:03;99769.06;;;-8.03;100.00
12146;BME280;6136;47.032;15.398;2023-02-08T03:43:36;99770.91;;;-8.00;100.00
12146;BME280;6136;47.032;15.398;2023-02-08T03:46:09;99775.97;;;-8.02;100.00
12146;BME280;6136;47.032;15.398;2023-02-08T03:48:42;99772.72;;;-7.98;100.00
12146;BME280;6136;47.032;15.398;2023-02-08T03:51:14;99762.00;;;-8.07;100.00
12146;BME280;6136;47.032;15.398;2023-02-08T03:53:44;99767.91;;;-8.09;100.00
12146;BME280;6136;47.032;15.398;2023-02-08T03:56:17;99771.72;;;-8.01;100.00
12146;BME280;6136;47.032;15.398;2023-02-08T03:58:53;99777.50;;;-8.05;100.00
12146;BME280;6136;47.032;15.398;2023-02-08T04:01:27;99766.41;;;-8.04;100.00
12146;BME280;6136;47.032;15.398;2023-02-08T04:03:57;99753.53;;;-8.04;100.00
12146;BME280;6136;47.032;15.398;2023-02-08T04:06:28;99753.41;;;-8.07;100.00
12146;BME280;6136;47.032;15.398;2023-02-08T04:08:56;99762.06;;;-8.05;100.00
12146;BME280;6136;47.032;15.398;2023-02-08T04:11:24;99776.78;;;-8.03;100.00
12146;BME280;6136;47.032;15.398;2023-02-08T04:13:52;99757.59;;;-8.09;100.00
12146;BME280;6136;47.032;15.398;2023-02-08T04:16:21;99762.00;;;-8.07;100.00
12146;BME280;6136;47.032;15.398;2023-02-08T04:18:49;99779.13;;;-8.07;100.00
12146;BME280;6136;47.032;15.398;2023-02-08T04:21:17;99775.63;;;-8.09;100.00
12146;BME280;6136;47.032;15.398;2023-02-08T04:23:46;99760.84;;;-8.13;100.00
12146;BME280;6136;47.032;15.398;2023-02-08T04:26:14;99789.19;;;-8.12;100.00
12146;BME280;6136;47.032;15.398;2023-02-08T04:28:42;99798.53;;;-8.14;100.00
12146;BME280;6136;47.032;15.398;2023-02-08T04:31:10;99800.91;;;-8.18;100.00
12146;BME280;6136;47.032;15.398;2023-02-08T04:33:39;99794.78;;;-8.20;100.00
12146;BME280;6136;47.032;15.398;2023-02-08T04:36:07;99799.13;;;-8.19;100.00
12146;BME280;6136;47.032;15.398;2023-02-08T04:38:36;99787.00;;;-8.22;100.00
12146;BME280;6136;47.032;15.398;2023-02-08T04:41:06;99797.88;;;-8.28;100.00
12146;BME280;6136;47.032;15.398;2023-02-08T04:43:34;99790.41;;;-8.23;100.00
12146;BME280;6136;47.032;15.398;2023-02-08T04:46:02;99787.88;;;-8.22;100.00
12146;BME280;6136;47.032;15.398;2023-02-08T04:48:31;99782.38;;;-8.29;100.00
12146;BME280;6136;47.032;15.398;2023-02-08T04:50:59;99774.81;;;-8.26;100.00
12146;BME280;6136;47.032;15.398;2023-02-08T04:53:27;99777.47;;;-8.25;100.00
12146;BME280;6136;47.032;15.398;2023-02-08T04:55:55;99782.63;;;-8.25;100.00
12146;BME280;6136;47.032;15.398;2023-02-08T04:58:25;99777.75;;;-8.18;100.00
12146;BME280;6136;47.032;15.398;2023-02-08T05:00:53;99784.94;;;-8.11;100.00
12146;BME280;6136;47.032;15.398;2023-02-08T05:03:21;99780.06;;;-8.05;100.00
12146;BME280;6136;47.032;15.398;2023-02-08T05:05:55;99778.75;;;-7.97;100.00
12146;BME280;6136;47.032;15.398;2023-02-08T05:08:24;99780.94;;;-7.87;100.00
12146;BME280;6136;47.032;15.398;2023-02-08T05:10:53;99777.94;;;-7.77;100.00
12146;BME280;6136;47.032;15.398;2023-02-08T05:13:21;99780.28;;;-7.64;100.00
12146;BME280;6136;47.032;15.398;2023-02-08T05:15:51;99778.16;;;-7.53;100.00
12146;BME280;6136;47.032;15.398;2023-02-08T05:18:19;99780.69;;;-7.35;100.00
12146;BME280;6136;47.032;15.398;2023-02-08T05:20:53;99781.22;;;-7.23;100.00
12146;BME280;6136;47.032;15.398;2023-02-08T05:23:21;99786.84;;;-7.13;100.00
12146;BME280;6136;47.032;15.398;2023-02-08T05:25:50;99784.75;;;-7.00;100.00
12146;BME280;6136;47.032;15.398;2023-02-08T05:28:18;99766.91;;;-6.96;100.00
12146;BME280;6136;47.032;15.398;2023-02-08T05:30:46;99778.88;;;-6.77;100.00
12146;BME280;6136;47.032;15.398;2023-02-08T05:33:16;99780.97;;;-6.69;100.00
12146;BME280;6136;47.032;15.398;2023-02-08T05:35:45;99773.66;;;-6.58;100.00
12146;BME280;6136;47.032;15.398;2023-02-08T05:38:13;99773.06;;;-6.51;100.00
12146;BME280;6136;47.032;15.398;2023-02-08T05:40:41;99769.88;;;-6.45;100.00
12146;BME280;6136;47.032;15.398;2023-02-08T05:43:09;99778.91;;;-6.34;100.00
12146;BME280;6136;47.032;15.398;2023-02-08T05:45:38;99776.56;;;-6.28;100.00
12146;BME280;6136;47.032;15.398;2023-02-08T05:48:06;99771.78;;;-6.19;100.00
12146;BME280;6136;47.032;15.398;2023-02-08T05:50:35;99773.78;;;-6.12;100.00
12146;BME280;6136;47.032;15.398;2023-02-08T05:53:04;99787.78;;;-6.05;100.00
12146;BME280;6136;47.032;15.398;2023-02-08T05:55:32;99792.31;;;-6.00;100.00
12146;BME280;6136;47.032;15.398;2023-02-08T05:58:00;99800.31;;;-5.94;100.00
12146;BME280;6136;47.032;15.398;2023-02-08T06:00:28;99802.28;;;-5.87;100.00
12146;BME280;6136;47.032;15.398;2023-02-08T06:02:57;99807.44;;;-5.87;100.00
12146;BME280;6136;47.032;15.398;2023-02-08T06:05:25;99811.81;;;-5.84;100.00
12146;BME280;6136;47.032;15.398;2023-02-08T06:07:54;99815.47;;;-5.79;100.00
12146;BME280;6136;47.032;15.398;2023-02-08T06:10:23;99807.66;;;-5.80;100.00
12146;BME280;6136;47.032;15.398;2023-02-08T06:12:51;99831.34;;;-5.68;100.00
12146;BME280;6136;47.032;15.398;2023-02-08T06:15:19;99840.13;;;-5.65;100.00
12146;BME280;6136;47.032;15.398;2023-02-08T06:17:47;99838.75;;;-5.55;100.00
12146;BME280;6136;47.032;15.398;2023-02-08T06:20:16;99843.16;;;-5.53;100.00
12146;BME280;6136;47.032;15.398;2023-02-08T06:22:44;99852.91;;;-5.45;100.00
12146;BME280;6136;47.032;15.398;2023-02-08T06:25:14;99853.84;;;-5.43;100.00
12146;BME280;6136;47.032;15.398;2023-02-08T06:27:42;99865.28;;;-5.37;100.00
12146;BME280;6136;47.032;15.398;2023-02-08T06:30:11;99865.28;;;-5.37;100.00
12146;BME280;6136;47.032;15.398;2023-02-08T06:32:39;99870.66;;;-5.31;100.00
12146;BME280;6136;47.032;15.398;2023-02-08T06:35:07;99880.63;;;-5.41;100.00
12146;BME280;6136;47.032;15.398;2023-02-08T06:37:36;99883.84;;;-5.47;100.00
12146;BME280;6136;47.032;15.398;2023-02-08T06:40:05;99885.13;;;-5.36;100.00
12146;BME280;6136;47.032;15.398;2023-02-08T06:42:35;99883.66;;;-5.29;100.00
12146;BME280;6136;47.032;15.398;2023-02-08T06:45:03;99887.19;;;-5.27;100.00
12146;BME280;6136;47.032;15.398;2023-02-08T06:47:34;99881.75;;;-5.33;100.00
12146;BME280;6136;47.032;15.398;2023-02-08T06:50:02;99888.75;;;-5.31;100.00
12146;BME280;6136;47.032;15.398;2023-02-08T06:52:30;99897.63;;;-5.24;100.00
12146;BME280;6136;47.032;15.398;2023-02-08T06:54:59;99890.94;;;-5.19;100.00
12146;BME280;6136;47.032;15.398;2023-02-08T06:57:27;99898.09;;;-5.12;100.00
12146;BME280;6136;47.032;15.398;2023-02-08T06:59:56;99893.91;;;-5.09;100.00
12146;BME280;6136;47.032;15.398;2023-02-08T07:02:24;99879.94;;;-5.14;100.00
12146;BME280;6136;47.032;15.398;2023-02-08T07:04:53;99888.91;;;-5.04;100.00
12146;BME280;6136;47.032;15.398;2023-02-08T07:07:21;99886.56;;;-4.98;100.00
12146;BME280;6136;47.032;15.398;2023-02-08T07:09:49;99885.66;;;-4.98;100.00
12146;BME280;6136;47.032;15.398;2023-02-08T07:12:17;99874.38;;;-5.00;100.00
12146;BME280;6136;47.032;15.398;2023-02-08T07:14:46;99887.44;;;-4.97;100.00
12146;BME280;6136;47.032;15.398;2023-02-08T07:17:15;99884.94;;;-4.94;100.00
12146;BME280;6136;47.032;15.398;2023-02-08T07:19:43;99889.28;;;-4.93;100.00
12146;BME280;6136;47.032;15.398;2023-02-08T07:22:11;99888.97;;;-4.79;100.00
12146;BME280;6136;47.032;15.398;2023-02-08T07:24:40;99884.00;;;-4.73;100.00
12146;BME280;6136;47.032;15.398;2023-02-08T07:27:10;99884.25;;;-4.65;100.00
12146;BME280;6136;47.032;15.398;2023-02-08T07:29:38;99875.06;;;-4.57;100.00
12146;BME280;6136;47.032;15.398;2023-02-08T07:32:07;99883.28;;;-4.45;100.00
12146;BME280;6136;47.032;15.398;2023-02-08T07:34:39;99873.75;;;-4.46;100.00
12146;BME280;6136;47.032;15.398;2023-02-08T07:37:07;99884.38;;;-4.37;100.00
12146;BME280;6136;47.032;15.398;2023-02-08T07:39:35;99885.53;;;-4.28;100.00
12146;BME280;6136;47.032;15.398;2023-02-08T07:42:04;99874.19;;;-4.32;100.00
12146;BME280;6136;47.032;15.398;2023-02-08T07:44:40;99876.75;;;-4.07;100.00
12146;BME280;6136;47.032;15.398;2023-02-08T07:47:08;99882.50;;;-3.90;100.00
12146;BME280;6136;47.032;15.398;2023-02-08T07:49:36;99887.69;;;-3.62;100.00
12146;BME280;6136;47.032;15.398;2023-02-08T07:52:06;99885.25;;;-3.29;100.00
12146;BME280;6136;47.032;15.398;2023-02-08T07:54:34;99892.63;;;-3.14;98.11
12146;BME280;6136;47.032;15.398;2023-02-08T07:57:02;99894.59;;;-3.05;99.15
12146;BME280;6136;47.032;15.398;2023-02-08T07:59:30;99890.47;;;-2.99;99.16
12146;BME280;6136;47.032;15.398;2023-02-08T08:01:58;99896.94;;;-2.85;97.74
12146;BME280;6136;47.032;15.398;2023-02-08T08:04:27;99909.78;;;-2.88;97.19
12146;BME280;6136;47.032;15.398;2023-02-08T08:06:55;99915.75;;;-2.92;96.05
12146;BME280;6136;47.032;15.398;2023-02-08T08:09:24;99917.03;;;-2.78;95.96
12146;BME280;6136;47.032;15.398;2023-02-08T08:11:52;99918.00;;;-2.72;94.46
12146;BME280;6136;47.032;15.398;2023-02-08T08:14:21;99907.53;;;-2.46;94.71
12146;BME280;6136;47.032;15.398;2023-02-08T08:16:49;99898.66;;;-2.21;92.57
12146;BME280;6136;47.032;15.398;2023-02-08T08:19:17;99904.13;;;-2.43;91.63
12146;BME280;6136;47.032;15.398;2023-02-08T08:21:45;99887.22;;;-1.94;90.30
12146;BME280;6136;47.032;15.398;2023-02-08T08:24:13;99889.81;;;-1.94;91.70
12146;BME280;6136;47.032;15.398;2023-02-08T08:26:43;99900.72;;;-1.73;89.44
12146;BME280;6136;47.032;15.398;2023-02-08T08:29:11;99910.38;;;-1.68;85.45
12146;BME280;6136;47.032;15.398;2023-02-08T08:31:41;99904.28;;;-1.68;86.98
12146;BME280;6136;47.032;15.398;2023-02-08T08:34:10;99919.09;;;-1.66;84.46
12146;BME280;6136;47.032;15.398;2023-02-08T08:36:38;99917.78;;;-1.48;86.21
12146;BME280;6136;47.032;15.398;2023-02-08T08:39:06;99914.63;;;-1.71;84.71
12146;BME280;6136;47.032;15.398;2023-02-08T08:41:34;99933.34;;;-1.84;83.09
12146;BME280;6136;47.032;15.398;2023-02-08T08:44:04;99931.63;;;-1.85;84.69
12146;BME280;6136;47.032;15.398;2023-02-08T08:46:32;99922.63;;;-1.62;84.34
12146;BME280;6136;47.032;15.398;2023-02-08T08:49:01;99925.19;;;-1.65;85.91
12146;BME280;6136;47.032;15.398;2023-02-08T08:51:29;99940.81;;;-1.62;86.18
12146;BME280;6136;47.032;15.398;2023-02-08T08:54:01;99954.50;;;-1.71;84.82
12146;BME280;6136;47.032;15.398;2023-02-08T08:56:29;99947.16;;;-1.87;87.86
12146;BME280;6136;47.032;15.398;2023-02-08T08:58:57;99955.03;;;-1.49;88.48
12146;BME280;6136;47.032;15.398;2023-02-08T09:01:27;99957.38;;;-0.42;82.53
12146;BME280;6136;47.032;15.398;2023-02-08T09:03:58;99929.78;;;0.15;77.55
12146;BME280;6136;47.032;15.398;2023-02-08T09:06:26;99922.50;;;0.50;78.02
12146;BME280;6136;47.032;15.398;2023-02-08T09:08:54;99915.91;;;0.73;75.37
12146;BME280;6136;47.032;15.398;2023-02-08T09:11:22;99928.63;;;0.50;74.98
12146;BME280;6136;47.032;15.398;2023-02-08T09:13:50;99924.81;;;0.87;74.86
12146;BME280;6136;47.032;15.398;2023-02-08T09:16:22;99915.50;;;1.07;71.13
12146;BME280;6136;47.032;15.398;2023-02-08T09:18:52;99915.03;;;1.39;67.28
12146;BME280;6136;47.032;15.398;2023-02-08T09:21:22;99919.69;;;1.66;64.86
12146;BME280;6136;47.032;15.398;2023-02-08T09:23:51;99920.53;;;1.63;64.37
12146;BME280;6136;47.032;15.398;2023-02-08T09:26:20;99916.06;;;1.51;65.32
12146;BME280;6136;47.032;15.398;2023-02-08T09:28:48;99918.78;;;1.64;64.48
12146;BME280;6136;47.032;15.398;2023-02-08T09:31:18;99924.34;;;1.17;63.75
12146;BME280;6136;47.032;15.398;2023-02-08T09:33:48;99915.03;;;1.39;62.94
12146;BME280;6136;47.032;15.398;2023-02-08T09:36:19;99915.56;;;1.87;61.37
12146;BME280;6136;47.032;15.398;2023-02-08T09:38:47;99926.19;;;2.03;60.02
12146;BME280;6136;47.032;15.398;2023-02-08T09:41:28;99928.91;;;2.13;61.15
12146;BME280;6136;47.032;15.398;2023-02-08T09:44:12;99933.53;;;2.46;59.35
12146;BME280;6136;47.032;15.398;2023-02-08T09:46:49;99941.19;;;2.23;61.67
12146;BME280;6136;47.032;15.398;2023-02-08T09:49:23;99941.56;;;1.72;63.49
12146;BME280;6136;47.032;15.398;2023-02-08T09:51:57;99949.59;;;1.16;64.91
12146;BME280;6136;47.032;15.398;2023-02-08T09:54:31;99954.22;;;1.37;65.36
12146;BME280;6136;47.032;15.398;2023-02-08T09:57:02;99950.22;;;1.68;63.64
12146;BME280;6136;47.032;15.398;2023-02-08T09:59:33;99946.31;;;1.33;64.95
12146;BME280;6136;47.032;15.398;2023-02-08T10:02:12;99952.41;;;1.35;66.54
12146;BME280;6136;47.032;15.398;2023-02-08T10:04:54;99936.78;;;2.18;63.96
12146;BME280;6136;47.032;15.398;2023-02-08T10:07:26;99941.59;;;1.78;62.74
12146;BME280;6136;47.032;15.398;2023-02-08T10:09:57;99945.63;;;2.32;60.99
12146;BME280;6136;47.032;15.398;2023-02-08T10:12:35;99940.44;;;2.35;59.47
12146;BME280;6136;47.032;15.398;2023-02-08T10:15:15;99940.56;;;2.53;58.09
12146;BME280;6136;47.032;15.398;2023-02-08T10:17:56;99941.72;;;1.87;58.65
12146;BME280;6136;47.032;15.398;2023-02-08T10:20:38;99939.16;;;1.93;59.35
12146;BME280;6136;47.032;15.398;2023-02-08T10:23:20;99936.38;;;1.75;59.00
12146;BME280;6136;47.032;15.398;2023-02-08T10:26:03;99934.13;;;2.12;58.47
12146;BME280;6136;47.032;15.398;2023-02-08T10:28:45;99933.38;;;2.25;59.15
12146;BME280;6136;47.032;15.398;2023-02-08T10:31:23;99927.41;;;2.41;56.70
12146;BME280;6136;47.032;15.398;2023-02-08T10:34:00;99933.63;;;2.55;57.08
12146;BME280;6136;47.032;15.398;2023-02-08T10:36:33;99930.78;;;2.26;55.44
12146;BME280;6136;47.032;15.398;2023-02-08T10:39:13;99921.09;;;2.18;55.10
12146;BME280;6136;47.032;15.398;2023-02-08T10:41:43;99925.22;;;1.91;55.29
12146;BME280;6136;47.032;15.398;2023-02-08T10:44:20;99930.91;;;1.54;55.50
12146;BME280;6136;47.032;15.398;2023-02-08T10:47:02;99936.94;;;1.50;56.25
12146;BME280;6136;47.032;15.398;2023-02-08T10:49:39;99934.22;;;1.41;56.16
12146;BME280;6136;47.032;15.398;2023-02-08T10:52:09;99926.47;;;1.48;53.96
12146;BME280;6136;47.032;15.398;2023-02-08T10:54:39;99922.28;;;1.64;54.16
12146;BME280;6136;47.032;15.398;2023-02-08T10:57:12;99933.47;;;1.51;56.34
12146;BME280;6136;47.032;15.398;2023-02-08T10:59:47;99923.81;;;1.44;56.35
12146;BME280;6136;47.032;15.398;2023-02-08T11:02:20;99915.78;;;1.29;56.75
12146;BME280;6136;47.032;15.398;2023-02-08T11:04:57;99914.28;;;1.47;57.01
12146;BME280;6136;47.032;15.398;2023-02-08T11:07:25;99918.75;;;1.59;57.29
12146;BME280;6136;47.032;15.398;2023-02-08T11:10:13;99912.53;;;1.46;57.93
12146;BME280;6136;47.032;15.398;2023-02-08T11:12:42;99909.03;;;1.46;55.53
12146;BME280;6136;47.032;15.398;2023-02-08T11:15:23;99914.88;;;1.27;56.06
12146;BME280;6136;47.032;15.398;2023-02-08T11:17:54;99908.00;;;1.35;55.44
12146;BME280;6136;47.032;15.398;2023-02-08T11:20:28;99906.66;;;0.98;56.09
12146;BME280;6136;47.032;15.398;2023-02-08T11:22:58;99900.47;;;0.88;55.71
12146;BME280;6136;47.032;15.398;2023-02-08T11:25:34;99904.78;;;0.86;54.99
12146;BME280;6136;47.032;15.398;2023-02-08T11:28:03;99899.00;;;1.11;54.71
12146;BME280;6136;47.032;15.398;2023-02-08T11:30:32;99898.72;;;0.90;57.06
12146;BME280;6136;47.032;15.398;2023-02-08T11:33:16;99903.63;;;0.66;57.71
12146;BME280;6136;47.032;15.398;2023-02-08T11:36:05;99896.69;;;0.68;56.57
12146;BME280;6136;47.032;15.398;2023-02-08T11:38:35;99884.00;;;0.94;58.23
12146;BME280;6136;47.032;15.398;2023-02-08T11:41:14;99888.75;;;1.24;56.07
12146;BME280;6136;47.032;15.398;2023-02-08T11:43:55;99893.78;;;1.11;55.75
12146;BME280;6136;47.032;15.398;2023-02-08T11:46:25;99885.34;;;1.31;55.24
12146;BME280;6136;47.032;15.398;2023-02-08T11:48:55;99884.56;;;1.38;53.69
12146;BME280;6136;47.032;15.398;2023-02-08T11:51:27;99893.97;;;1.24;54.44
12146;BME280;6136;47.032;15.398;2023-02-08T11:53:57;99892.44;;;1.44;52.14
12146;BME280;6136;47.032;15.398;2023-02-08T11:56:30;99883.94;;;1.60;51.83
12146;BME280;6136;47.032;15.398;2023-02-08T11:59:05;99890.94;;;1.63;53.72
12146;BME280;6136;47.032;15.398;2023-02-08T12:01:44;99890.50;;;1.25;54.48
12146;BME280;6136;47.032;15.398;2023-02-08T12:04:14;99885.25;;;1.23;54.15
12146;BME280;6136;47.032;15.398;2023-02-08T12:07:03;99874.91;;;1.34;53.85
12146;BME280;6136;47.032;15.398;2023-02-08T12:12:51;99866.59;;;1.71;52.74
12146;BME280;6136;47.032;15.398;2023-02-08T12:15:30;99873.34;;;1.46;53.62
12146;BME280;6136;47.032;15.398;2023-02-08T12:18:37;99863.91;;;1.61;52.44
12146;BME280;6136;47.032;15.398;2023-02-08T12:21:14;99863.50;;;1.24;53.77
12146;BME280;6136;47.032;15.398;2023-02-08T12:23:51;99867.69;;;1.11;53.81
12146;BME280;6136;47.032;15.398;2023-02-08T12:26:28;99866.38;;;1.48;54.05
12146;BME280;6136;47.032;15.398;2023-02-08T12:29:21;99860.94;;;1.29;54.64
12146;BME280;6136;47.032;15.398;2023-02-08T12:32:27;99858.22;;;1.18;55.87
12146;BME280;6136;47.032;15.398;2023-02-08T12:38:21;99855.88;;;1.44;52.66
12146;BME280;6136;47.032;15.398;2023-02-08T12:41:16;99852.47;;;1.48;53.38
12146;BME280;6136;47.032;15.398;2023-02-08T12:43:53;99848.16;;;1.53;53.55
12146;BME280;6136;47.032;15.398;2023-02-08T12:46:50;99848.88;;;1.40;53.43
12146;BME280;6136;47.032;15.398;2023-02-08T12:49:38;99840.38;;;1.59;53.76
12146;BME280;6136;47.032;15.398;2023-02-08T12:52:21;99833.56;;;1.79;53.62
12146;BME280;6136;47.032;15.398;2023-02-08T12:54:55;99831.97;;;1.93;54.21
12146;BME280;6136;47.032;15.398;2023-02-08T12:57:25;99829.19;;;1.74;53.07
12146;BME280;6136;47.032;15.398;2023-02-08T13:00:00;99825.09;;;2.05;52.88
12146;BME280;6136;47.032;15.398;2023-02-08T13:02:34;99826.72;;;1.90;52.70
12146;BME280;6136;47.032;15.398;2023-02-08T13:05:15;99838.06;;;1.92;52.87
12146;BME280;6136;47.032;15.398;2023-02-08T13:07:45;99829.28;;;1.84;53.13
12146;BME280;6136;47.032;15.398;2023-02-08T13:10:20;99824.72;;;1.62;53.40
12146;BME280;6136;47.032;15.398;2023-02-08T13:12:55;99817.16;;;1.92;52.95
12146;BME280;6136;47.032;15.398;2023-02-08T13:15:29;99808.38;;;1.86;53.06
12146;BME280;6136;47.032;15.398;2023-02-08T13:18:11;99814.41;;;1.77;52.63
12146;BME280;6136;47.032;15.398;2023-02-08T13:20:44;99811.19;;;2.12;52.03
12146;BME280;6136;47.032;15.398;2023-02-08T13:23:18;99808.53;;;2.06;52.25
12146;BME280;6136;47.032;15.398;2023-02-08T13:25:49;99813.84;;;2.16;54.23
12146;BME280;6136;47.032;15.398;2023-02-08T13:28:21;99809.63;;;2.35;52.77
12146;BME280;6136;47.032;15.398;2023-02-08T13:30:55;99793.41;;;3.09;51.95
12146;BME280;6136;47.032;15.398;2023-02-08T13:33:33;99793.50;;;3.45;51.42